sensor_id;sensor_type;location;lat;lon;timestamp;P1;durP1;ratioP1;P2;durP2;ratioP2
15402;SDS011;7799;53.478;10.170;2023-06-05T00:00:51;0.60;;;0.50;;
15402;SDS011;7799;53.478;10.170;2023-06-05T00:03:18;0.53;;;0.40;;
15402;SDS011;7799;53.478;10.170;2023-06-05T00:05:45;0.30;;;0.30;;
15402;SDS011;7799;53.478;10.170;2023-06-05T00:08:11;0.40;;;0.40;;
15402;SDS011;7799;53.478;10.170;2023-06-05T00:10:41;0.40;;;0.40;;
15402;SDS011;7799;53.478;10.170;2023-06-05T00:13:10;0.60;;;0.57;;
15402;SDS011;7799;53.478;10.170;2023-06-05T00:15:36;0.50;;;0.50;;
15402;SDS011;7799;53.478;10.170;2023-06-05T00:18:04;0.97;;;0.30;;
15402;SDS011;7799;53.478;10.170;2023-06-05T00:20:31;1.20;;;0.50;;
15402;SDS011;7799;53.478;10.170;2023-06-05T00:22:58;0.33;;;0.33;;
15402;SDS011;7799;53.478;10.170;2023-06-05T00:25:25;0.50;;;0.40;;
15402;SDS011;7799;53.478;10.170;2023-06-05T00:27:51;0.50;;;0.50;;
15402;SDS011;7799;53.478;10.170;2023-06-05T00:30:18;0.50;;;0.50;;
15402;SDS011;7799;53.478;10.170;2023-06-05T00:32:45;0.30;;;0.30;;
15402;SDS011;7799;53.478;10.170;2023-06-05T00:35:13;0.50;;;0.50;;
15402;SDS011;7799;53.478;10.170;2023-06-05T00:37:42;0.40;;;0.40;;
15402;SDS011;7799;53.478;10.170;2023-06-05T00:40:12;0.40;;;0.40;;
15402;SDS011;7799;53.478;10.170;2023-06-05T00:42:38;0.30;;;0.30;;
15402;SDS011;7799;53.478;10.170;2023-06-05T00:45:06;0.33;;;0.33;;
15402;SDS011;7799;53.478;10.170;2023-06-05T00:47:33;0.47;;;0.40;;
15402;SDS011;7799;53.478;10.170;2023-06-05T00:50:00;0.63;;;0.33;;
15402;SDS011;7799;53.478;10.170;2023-06-05T00:52:29;0.33;;;0.30;;
15402;SDS011;7799;53.478;10.170;2023-06-05T00:54:57;0.90;;;0.60;;
15402;SDS011;7799;53.478;10.170;2023-06-05T00:57:23;0.57;;;0.57;;
15402;SDS011;7799;53.478;10.170;2023-06-05T00:59:51;0.50;;;0.50;;
15402;SDS011;7799;53.478;10.170;2023-06-05T01:02:19;0.57;;;0.50;;
15402;SDS011;7799;53.478;10.170;2023-06-05T01:04:47;0.60;;;0.50;;
15402;SDS011;7799;53.478;10.170;2023-06-05T01:07:14;0.50;;;0.50;;
15402;SDS011;7799;53.478;10.170;2023-06-05T01:09:43;0.50;;;0.50;;
15402;SDS011;7799;53.478;10.170;2023-06-05T01:12:11;0.50;;;0.50;;
15402;SDS011;7799;53.478;10.170;2023-06-05T01:14:42;0.60;;;0.60;;
15402;SDS011;7799;53.478;10.170;2023-06-05T01:17:11;0.73;;;0.50;;
15402;SDS011;7799;53.478;10.170;2023-06-05T01:19:39;0.77;;;0.57;;
15402;SDS011;7799;53.478;10.170;2023-06-05T01:22:05;0.50;;;0.50;;
15402;SDS011;7799;53.478;10.170;2023-06-05T01:24:34;0.60;;;0.60;;
15402;SDS011;7799;53.478;10.170;2023-06-05T01:27:02;0.50;;;0.50;;
15402;SDS011;7799;53.478;10.170;2023-06-05T01:29:35;0.50;;;0.50;;
15402;SDS011;7799;53.478;10.170;2023-06-05T01:32:05;0.97;;;0.73;;
15402;SDS011;7799;53.478;10.170;2023-06-05T01:34:34;0.80;;;0.80;;
15402;SDS011;7799;53.478;10.170;2023-06-05T01:37:03;0.57;;;0.57;;
15402;SDS011;7799;53.478;10.170;2023-06-05T01:39:35;0.60;;;0.60;;
15402;SDS011;7799;53.478;10.170;2023-06-05T01:42:03;0.70;;;0.60;;
15402;SDS011;7799;53.478;10.170;2023-06-05T01:44:30;0.40;;;0.40;;
15402;SDS011;7799;53.478;10.170;2023-06-05T01:46:57;0.70;;;0.50;;
15402;SDS011;7799;53.478;10.170;2023-06-05T01:49:25;0.63;;;0.57;;
15402;SDS011;7799;53.478;10.170;2023-06-05T01:51:52;0.50;;;0.50;;
15402;SDS011;7799;53.478;10.170;2023-06-05T01:54:20;0.63;;;0.63;;
15402;SDS011;7799;53.478;10.170;2023-06-05T01:56:49;0.63;;;0.60;;
15402;SDS011;7799;53.478;10.170;2023-06-05T01:59:18;0.53;;;0.53;;
15402;SDS011;7799;53.478;10.170;2023-06-05T02:01:44;0.50;;;0.50;;
15402;SDS011;7799;53.478;10.170;2023-06-05T02:04:11;1.43;;;0.70;;
15402;SDS011;7799;53.478;10.170;2023-06-05T02:06:44;0.50;;;0.50;;
15402;SDS011;7799;53.478;10.170;2023-06-05T02:09:12;0.60;;;0.50;;
15402;SDS011;7799;53.478;10.170;2023-06-05T02:11:39;0.40;;;0.40;;
15402;SDS011;7799;53.478;10.170;2023-06-05T02:14:09;0.50;;;0.40;;
15402;SDS011;7799;53.478;10.170;2023-06-05T02:16:37;0.70;;;0.53;;
15402;SDS011;7799;53.478;10.170;2023-06-05T02:19:05;0.77;;;0.50;;
15402;SDS011;7799;53.478;10.170;2023-06-05T02:21:32;0.50;;;0.50;;
15402;SDS011;7799;53.478;10.170;2023-06-05T02:23:59;0.50;;;0.50;;
15402;SDS011;7799;53.478;10.170;2023-06-05T02:26:26;0.60;;;0.60;;
15402;SDS011;7799;53.478;10.170;2023-06-05T02:28:55;0.57;;;0.43;;
15402;SDS011;7799;53.478;10.170;2023-06-05T02:31:24;0.60;;;0.60;;
15402;SDS011;7799;53.478;10.170;2023-06-05T02:33:54;0.40;;;0.40;;
15402;SDS011;7799;53.478;10.170;2023-06-05T02:36:21;0.70;;;0.60;;
15402;SDS011;7799;53.478;10.170;2023-06-05T02:38:49;0.53;;;0.40;;
15402;SDS011;7799;53.478;10.170;2023-06-05T02:41:16;0.70;;;0.70;;
15402;SDS011;7799;53.478;10.170;2023-06-05T02:43:43;0.97;;;0.90;;
15402;SDS011;7799;53.478;10.170;2023-06-05T02:46:10;0.97;;;0.67;;
15402;SDS011;7799;53.478;10.170;2023-06-05T02:48:39;0.97;;;0.70;;
15402;SDS011;7799;53.478;10.170;2023-06-05T02:51:06;0.90;;;0.90;;
15402;SDS011;7799;53.478;10.170;2023-06-05T02:53:35;0.80;;;0.80;;
15402;SDS011;7799;53.478;10.170;2023-06-05T02:56:02;0.60;;;0.60;;
15402;SDS011;7799;53.478;10.170;2023-06-05T02:58:30;0.50;;;0.50;;
15402;SDS011;7799;53.478;10.170;2023-06-05T03:00:57;0.70;;;0.70;;
15402;SDS011;7799;53.478;10.170;2023-06-05T03:03:30;0.77;;;0.60;;
15402;SDS011;7799;53.478;10.170;2023-06-05T03:05:59;0.70;;;0.70;;
15402;SDS011;7799;53.478;10.170;2023-06-05T03:08:30;1.43;;;0.90;;
15402;SDS011;7799;53.478;10.170;2023-06-05T03:10:58;0.60;;;0.60;;
15402;SDS011;7799;53.478;10.170;2023-06-05T03:13:25;0.60;;;0.60;;
15402;SDS011;7799;53.478;10.170;2023-06-05T03:15:53;1.63;;;0.50;;
15402;SDS011;7799;53.478;10.170;2023-06-05T03:18:23;0.73;;;0.63;;
15402;SDS011;7799;53.478;10.170;2023-06-05T03:20:53;0.60;;;0.43;;
15402;SDS011;7799;53.478;10.170;2023-06-05T03:23:23;0.57;;;0.57;;
15402;SDS011;7799;53.478;10.170;2023-06-05T03:25:51;0.67;;;0.67;;
15402;SDS011;7799;53.478;10.170;2023-06-05T03:28:20;0.43;;;0.43;;
15402;SDS011;7799;53.478;10.170;2023-06-05T03:30:47;0.60;;;0.60;;
15402;SDS011;7799;53.478;10.170;2023-06-05T03:33:15;0.50;;;0.50;;
15402;SDS011;7799;53.478;10.170;2023-06-05T03:35:43;0.50;;;0.47;;
15402;SDS011;7799;53.478;10.170;2023-06-05T03:38:11;0.60;;;0.60;;
15402;SDS011;7799;53.478;10.170;2023-06-05T03:40:40;0.50;;;0.50;;
15402;SDS011;7799;53.478;10.170;2023-06-05T03:43:10;0.60;;;0.60;;
15402;SDS011;7799;53.478;10.170;2023-06-05T03:45:37;0.40;;;0.40;;
15402;SDS011;7799;53.478;10.170;2023-06-05T03:48:07;0.60;;;0.60;;
15402;SDS011;7799;53.478;10.170;2023-06-05T03:50:37;0.50;;;0.50;;
15402;SDS011;7799;53.478;10.170;2023-06-05T03:53:05;0.70;;;0.70;;
15402;SDS011;7799;53.478;10.170;2023-06-05T03:55:33;0.50;;;0.50;;
15402;SDS011;7799;53.478;10.170;2023-06-05T03:58:10;0.50;;;0.50;;
15402;SDS011;7799;53.478;10.170;2023-06-05T04:00:39;0.70;;;0.60;;
15402;SDS011;7799;53.478;10.170;2023-06-05T04:03:06;0.53;;;0.50;;
15402;SDS011;7799;53.478;10.170;2023-06-05T04:05:36;0.80;;;0.60;;
15402;SDS011;7799;53.478;10.170;2023-06-05T04:08:04;1.00;;;1.00;;
15402;SDS011;7799;53.478;10.170;2023-06-05T04:10:33;0.90;;;0.90;;
15402;SDS011;7799;53.478;10.170;2023-06-05T04:12:59;0.97;;;0.77;;
15402;SDS011;7799;53.478;10.170;2023-06-05T04:15:28;0.80;;;0.80;;
15402;SDS011;7799;53.478;10.170;2023-06-05T04:17:55;0.60;;;0.60;;
15402;SDS011;7799;53.478;10.170;2023-06-05T04:20:22;1.10;;;1.00;;
15402;SDS011;7799;53.478;10.170;2023-06-05T04:22:49;1.20;;;1.10;;
15402;SDS011;7799;53.478;10.170;2023-06-05T04:25:16;0.70;;;0.70;;
15402;SDS011;7799;53.478;10.170;2023-06-05T04:27:45;1.07;;;0.97;;
15402;SDS011;7799;53.478;10.170;2023-06-05T04:30:15;0.87;;;0.87;;
15402;SDS011;7799;53.478;10.170;2023-06-05T04:32:44;0.77;;;0.77;;
15402;SDS011;7799;53.478;10.170;2023-06-05T04:35:18;0.83;;;0.83;;
15402;SDS011;7799;53.478;10.170;2023-06-05T04:37:45;1.10;;;1.00;;
15402;SDS011;7799;53.478;10.170;2023-06-05T04:40:12;1.23;;;0.90;;
15402;SDS011;7799;53.478;10.170;2023-06-05T04:42:40;1.40;;;0.80;;
15402;SDS011;7799;53.478;10.170;2023-06-05T04:45:07;1.03;;;0.90;;
15402;SDS011;7799;53.478;10.170;2023-06-05T04:47:37;0.70;;;0.70;;
15402;SDS011;7799;53.478;10.170;2023-06-05T04:50:06;0.67;;;0.67;;
15402;SDS011;7799;53.478;10.170;2023-06-05T04:52:37;0.90;;;0.90;;
15402;SDS011;7799;53.478;10.170;2023-06-05T04:55:06;1.10;;;1.00;;
15402;SDS011;7799;53.478;10.170;2023-06-05T04:57:33;1.10;;;1.00;;
15402;SDS011;7799;53.478;10.170;2023-06-05T05:00:03;1.50;;;1.10;;
15402;SDS011;7799;53.478;10.170;2023-06-05T05:02:32;1.30;;;1.20;;
15402;SDS011;7799;53.478;10.170;2023-06-05T05:05:00;1.33;;;1.23;;
15402;SDS011;7799;53.478;10.170;2023-06-05T05:07:28;0.80;;;0.80;;
15402;SDS011;7799;53.478;10.170;2023-06-05T05:09:56;1.30;;;1.20;;
15402;SDS011;7799;53.478;10.170;2023-06-05T05:12:23;1.20;;;1.10;;
15402;SDS011;7799;53.478;10.170;2023-06-05T05:14:50;1.27;;;1.17;;
15402;SDS011;7799;53.478;10.170;2023-06-05T05:17:17;1.57;;;1.47;;
15402;SDS011;7799;53.478;10.170;2023-06-05T05:19:45;1.30;;;1.20;;
15402;SDS011;7799;53.478;10.170;2023-06-05T05:22:12;1.60;;;1.50;;
15402;SDS011;7799;53.478;10.170;2023-06-05T05:24:40;1.40;;;1.30;;
15402;SDS011;7799;53.478;10.170;2023-06-05T05:27:07;1.83;;;1.10;;
15402;SDS011;7799;53.478;10.170;2023-06-05T05:29:34;1.30;;;1.20;;
15402;SDS011;7799;53.478;10.170;2023-06-05T05:32:02;1.50;;;1.40;;
15402;SDS011;7799;53.478;10.170;2023-06-05T05:34:29;1.43;;;1.33;;
15402;SDS011;7799;53.478;10.170;2023-06-05T05:36:56;1.23;;;1.20;;
15402;SDS011;7799;53.478;10.170;2023-06-05T05:39:23;1.17;;;1.17;;
15402;SDS011;7799;53.478;10.170;2023-06-05T05:41:51;1.07;;;1.07;;
15402;SDS011;7799;53.478;10.170;2023-06-05T05:44:17;1.50;;;1.40;;
15402;SDS011;7799;53.478;10.170;2023-06-05T05:46:45;2.07;;;1.77;;
15402;SDS011;7799;53.478;10.170;2023-06-05T05:49:12;1.50;;;1.40;;
15402;SDS011;7799;53.478;10.170;2023-06-05T05:51:38;1.83;;;1.40;;
15402;SDS011;7799;53.478;10.170;2023-06-05T05:54:06;1.60;;;1.50;;
15402;SDS011;7799;53.478;10.170;2023-06-05T05:56:32;1.43;;;1.33;;
15402;SDS011;7799;53.478;10.170;2023-06-05T05:59:00;1.80;;;1.40;;
15402;SDS011;7799;53.478;10.170;2023-06-05T06:01:28;1.80;;;1.50;;
15402;SDS011;7799;53.478;10.170;2023-06-05T06:03:55;2.33;;;1.30;;
15402;SDS011;7799;53.478;10.170;2023-06-05T06:06:21;1.50;;;1.40;;
15402;SDS011;7799;53.478;10.170;2023-06-05T06:08:48;1.80;;;1.70;;
15402;SDS011;7799;53.478;10.170;2023-06-05T06:11:15;2.43;;;1.30;;
15402;SDS011;7799;53.478;10.170;2023-06-05T06:13:42;1.70;;;1.60;;
15402;SDS011;7799;53.478;10.170;2023-06-05T06:16:10;1.47;;;1.37;;
15402;SDS011;7799;53.478;10.170;2023-06-05T06:18:37;1.67;;;1.57;;
15402;SDS011;7799;53.478;10.170;2023-06-05T06:21:04;1.80;;;1.70;;
15402;SDS011;7799;53.478;10.170;2023-06-05T06:23:32;2.40;;;1.77;;
15402;SDS011;7799;53.478;10.170;2023-06-05T06:25:58;1.40;;;1.27;;
15402;SDS011;7799;53.478;10.170;2023-06-05T06:28:26;1.10;;;1.10;;
15402;SDS011;7799;53.478;10.170;2023-06-05T06:30:52;1.60;;;1.50;;
15402;SDS011;7799;53.478;10.170;2023-06-05T06:33:20;1.47;;;1.37;;
15402;SDS011;7799;53.478;10.170;2023-06-05T06:35:48;2.27;;;1.40;;
15402;SDS011;7799;53.478;10.170;2023-06-05T06:38:14;1.40;;;1.30;;
15402;SDS011;7799;53.478;10.170;2023-06-05T06:40:41;1.57;;;1.10;;
15402;SDS011;7799;53.478;10.170;2023-06-05T06:43:08;1.10;;;1.00;;
15402;SDS011;7799;53.478;10.170;2023-06-05T06:45:44;1.60;;;1.50;;
15402;SDS011;7799;53.478;10.170;2023-06-05T06:48:10;1.50;;;1.40;;
15402;SDS011;7799;53.478;10.170;2023-06-05T06:50:38;1.53;;;1.40;;
15402;SDS011;7799;53.478;10.170;2023-06-05T06:53:05;1.47;;;1.37;;
15402;SDS011;7799;53.478;10.170;2023-06-05T06:55:32;1.17;;;1.07;;
15402;SDS011;7799;53.478;10.170;2023-06-05T06:57:59;1.40;;;1.00;;
15402;SDS011;7799;53.478;10.170;2023-06-05T07:00:26;1.33;;;1.07;;
15402;SDS011;7799;53.478;10.170;2023-06-05T07:02:52;1.43;;;1.33;;
15402;SDS011;7799;53.478;10.170;2023-06-05T07:05:19;1.40;;;1.00;;
15402;SDS011;7799;53.478;10.170;2023-06-05T07:07:47;1.33;;;1.17;;
15402;SDS011;7799;53.478;10.170;2023-06-05T07:10:14;1.50;;;1.33;;
15402;SDS011;7799;53.478;10.170;2023-06-05T07:12:40;1.30;;;1.17;;
15402;SDS011;7799;53.478;10.170;2023-06-05T07:15:07;1.07;;;0.97;;
15402;SDS011;7799;53.478;10.170;2023-06-05T07:17:34;1.00;;;1.00;;
15402;SDS011;7799;53.478;10.170;2023-06-05T07:20:01;1.23;;;1.13;;
15402;SDS011;7799;53.478;10.170;2023-06-05T07:22:30;1.50;;;1.30;;
15402;SDS011;7799;53.478;10.170;2023-06-05T07:24:58;2.27;;;1.40;;
15402;SDS011;7799;53.478;10.170;2023-06-05T07:27:25;1.00;;;1.00;;
15402;SDS011;7799;53.478;10.170;2023-06-05T07:29:53;1.10;;;1.00;;
15402;SDS011;7799;53.478;10.170;2023-06-05T07:32:21;1.07;;;0.97;;
15402;SDS011;7799;53.478;10.170;2023-06-05T07:34:48;1.30;;;1.20;;
15402;SDS011;7799;53.478;10.170;2023-06-05T07:37:14;1.40;;;1.30;;
15402;SDS011;7799;53.478;10.170;2023-06-05T07:39:41;1.90;;;1.50;;
15402;SDS011;7799;53.478;10.170;2023-06-05T07:42:09;1.03;;;1.03;;
15402;SDS011;7799;53.478;10.170;2023-06-05T07:44:36;2.70;;;1.50;;
15402;SDS011;7799;53.478;10.170;2023-06-05T07:47:03;1.27;;;1.17;;
15402;SDS011;7799;53.478;10.170;2023-06-05T07:49:30;1.20;;;1.10;;
15402;SDS011;7799;53.478;10.170;2023-06-05T07:51:57;1.17;;;1.00;;
15402;SDS011;7799;53.478;10.170;2023-06-05T07:54:24;0.90;;;0.90;;
15402;SDS011;7799;53.478;10.170;2023-06-05T07:56:51;1.20;;;1.00;;
15402;SDS011;7799;53.478;10.170;2023-06-05T07:59:20;1.00;;;1.00;;
15402;SDS011;7799;53.478;10.170;2023-06-05T08:01:50;1.43;;;0.83;;
15402;SDS011;7799;53.478;10.170;2023-06-05T08:04:17;1.00;;;0.80;;
15402;SDS011;7799;53.478;10.170;2023-06-05T08:06:44;0.80;;;0.80;;
15402;SDS011;7799;53.478;10.170;2023-06-05T08:09:11;1.20;;;0.90;;
15402;SDS011;7799;53.478;10.170;2023-06-05T08:11:38;0.80;;;0.80;;
15402;SDS011;7799;53.478;10.170;2023-06-05T08:14:05;1.20;;;1.03;;
15402;SDS011;7799;53.478;10.170;2023-06-05T08:16:33;0.90;;;0.73;;
15402;SDS011;7799;53.478;10.170;2023-06-05T08:19:00;0.83;;;0.80;;
15402;SDS011;7799;53.478;10.170;2023-06-05T08:21:27;1.03;;;0.93;;
15402;SDS011;7799;53.478;10.170;2023-06-05T08:23:54;1.00;;;0.83;;
15402;SDS011;7799;53.478;10.170;2023-06-05T08:26:21;1.27;;;0.80;;
15402;SDS011;7799;53.478;10.170;2023-06-05T08:28:48;1.10;;;1.00;;
15402;SDS011;7799;53.478;10.170;2023-06-05T08:31:15;1.40;;;1.20;;
15402;SDS011;7799;53.478;10.170;2023-06-05T08:33:43;0.90;;;0.90;;
15402;SDS011;7799;53.478;10.170;2023-06-05T08:36:10;1.80;;;0.87;;
15402;SDS011;7799;53.478;10.170;2023-06-05T08:38:37;1.00;;;0.90;;
15402;SDS011;7799;53.478;10.170;2023-06-05T08:41:04;1.20;;;1.10;;
15402;SDS011;7799;53.478;10.170;2023-06-05T08:43:35;1.23;;;0.80;;
15402;SDS011;7799;53.478;10.170;2023-06-05T08:46:02;0.80;;;0.80;;
15402;SDS011;7799;53.478;10.170;2023-06-05T08:48:31;0.93;;;0.93;;
15402;SDS011;7799;53.478;10.170;2023-06-05T08:51:01;1.33;;;1.23;;
15402;SDS011;7799;53.478;10.170;2023-06-05T08:53:28;2.70;;;1.67;;
15402;SDS011;7799;53.478;10.170;2023-06-05T08:55:59;1.03;;;0.93;;
15402;SDS011;7799;53.478;10.170;2023-06-05T08:58:26;1.33;;;1.10;;
15402;SDS011;7799;53.478;10.170;2023-06-05T09:00:53;1.43;;;1.27;;
15402;SDS011;7799;53.478;10.170;2023-06-05T09:03:20;1.10;;;1.00;;
15402;SDS011;7799;53.478;10.170;2023-06-05T09:05:46;0.80;;;0.80;;
15402;SDS011;7799;53.478;10.170;2023-06-05T09:08:15;1.00;;;0.90;;
15402;SDS011;7799;53.478;10.170;2023-06-05T09:10:42;1.07;;;0.90;;
15402;SDS011;7799;53.478;10.170;2023-06-05T09:13:09;1.13;;;1.03;;
15402;SDS011;7799;53.478;10.170;2023-06-05T09:15:36;0.68;;;0.60;;
15402;SDS011;7799;53.478;10.170;2023-06-05T09:18:03;1.60;;;1.10;;
15402;SDS011;7799;53.478;10.170;2023-06-05T09:20:33;1.33;;;1.23;;
15402;SDS011;7799;53.478;10.170;2023-06-05T09:23:01;1.98;;;0.90;;
15402;SDS011;7799;53.478;10.170;2023-06-05T09:25:40;0.90;;;0.90;;
15402;SDS011;7799;53.478;10.170;2023-06-05T09:28:13;0.90;;;0.90;;
15402;SDS011;7799;53.478;10.170;2023-06-05T09:33:22;0.90;;;0.75;;
15402;SDS011;7799;53.478;10.170;2023-06-05T09:36:02;0.68;;;0.68;;
15402;SDS011;7799;53.478;10.170;2023-06-05T09:38:30;0.70;;;0.50;;
15402;SDS011;7799;53.478;10.170;2023-06-05T09:41:02;0.63;;;0.63;;
15402;SDS011;7799;53.478;10.170;2023-06-05T09:43:29;0.63;;;0.63;;
15402;SDS011;7799;53.478;10.170;2023-06-05T09:45:56;0.90;;;0.75;;
15402;SDS011;7799;53.478;10.170;2023-06-05T09:48:23;0.80;;;0.80;;
15402;SDS011;7799;53.478;10.170;2023-06-05T09:50:51;0.77;;;0.70;;
15402;SDS011;7799;53.478;10.170;2023-06-05T09:53:18;0.60;;;0.60;;
15402;SDS011;7799;53.478;10.170;2023-06-05T09:55:46;0.65;;;0.65;;
15402;SDS011;7799;53.478;10.170;2023-06-05T09:58:14;1.50;;;1.00;;
15402;SDS011;7799;53.478;10.170;2023-06-05T10:00:42;1.25;;;1.00;;
15402;SDS011;7799;53.478;10.170;2023-06-05T10:03:12;1.15;;;1.08;;
15402;SDS011;7799;53.478;10.170;2023-06-05T10:05:41;0.60;;;0.60;;
15402;SDS011;7799;53.478;10.170;2023-06-05T10:08:10;1.15;;;0.95;;
15402;SDS011;7799;53.478;10.170;2023-06-05T10:10:38;1.13;;;0.70;;
15402;SDS011;7799;53.478;10.170;2023-06-05T10:13:05;0.70;;;0.70;;
15402;SDS011;7799;53.478;10.170;2023-06-05T10:15:33;0.50;;;0.50;;
15402;SDS011;7799;53.478;10.170;2023-06-05T10:18:00;1.10;;;1.00;;
15402;SDS011;7799;53.478;10.170;2023-06-05T10:20:27;0.80;;;0.80;;
15402;SDS011;7799;53.478;10.170;2023-06-05T10:22:53;0.80;;;0.80;;
15402;SDS011;7799;53.478;10.170;2023-06-05T10:25:21;1.00;;;0.90;;
15402;SDS011;7799;53.478;10.170;2023-06-05T10:27:54;0.98;;;0.95;;
15402;SDS011;7799;53.478;10.170;2023-06-05T10:33:29;0.98;;;0.98;;
15402;SDS011;7799;53.478;10.170;2023-06-05T10:36:03;0.88;;;0.88;;
15402;SDS011;7799;53.478;10.170;2023-06-05T10:38:38;2.88;;;1.30;;
15402;SDS011;7799;53.478;10.170;2023-06-05T10:41:05;0.88;;;0.88;;
15402;SDS011;7799;53.478;10.170;2023-06-05T10:43:32;1.00;;;0.80;;
15402;SDS011;7799;53.478;10.170;2023-06-05T10:46:02;1.05;;;0.80;;
15402;SDS011;7799;53.478;10.170;2023-06-05T10:51:36;0.88;;;0.88;;
15402;SDS011;7799;53.478;10.170;2023-06-05T10:54:05;1.17;;;1.08;;
15402;SDS011;7799;53.478;10.170;2023-06-05T10:59:22;1.27;;;0.80;;
15402;SDS011;7799;53.478;10.170;2023-06-05T11:05:10;1.10;;;0.80;;
15402;SDS011;7799;53.478;10.170;2023-06-05T11:07:37;0.88;;;0.82;;
15402;SDS011;7799;53.478;10.170;2023-06-05T11:10:12;1.08;;;0.98;;
15402;SDS011;7799;53.478;10.170;2023-06-05T11:12:58;0.80;;;0.80;;
15402;SDS011;7799;53.478;10.170;2023-06-05T11:18:33;0.77;;;0.77;;
15402;SDS011;7799;53.478;10.170;2023-06-05T11:21:02;0.80;;;0.80;;
15402;SDS011;7799;53.478;10.170;2023-06-05T11:23:29;0.80;;;0.80;;
15402;SDS011;7799;53.478;10.170;2023-06-05T11:25:56;0.82;;;0.82;;
15402;SDS011;7799;53.478;10.170;2023-06-05T11:28:38;0.80;;;0.80;;
15402;SDS011;7799;53.478;10.170;2023-06-05T11:31:06;0.68;;;0.60;;
15402;SDS011;7799;53.478;10.170;2023-06-05T11:33:32;0.70;;;0.70;;
15402;SDS011;7799;53.478;10.170;2023-06-05T11:36:00;1.15;;;0.98;;
15402;SDS011;7799;53.478;10.170;2023-06-05T11:38:29;1.17;;;0.82;;
15402;SDS011;7799;53.478;10.170;2023-06-05T11:40:56;0.80;;;0.80;;
15402;SDS011;7799;53.478;10.170;2023-06-05T11:43:22;0.82;;;0.82;;
15402;SDS011;7799;53.478;10.170;2023-06-05T11:45:50;0.70;;;0.70;;
15402;SDS011;7799;53.478;10.170;2023-06-05T11:48:18;1.33;;;1.00;;
15402;SDS011;7799;53.478;10.170;2023-06-05T11:50:55;1.42;;;1.00;;
15402;SDS011;7799;53.478;10.170;2023-06-05T11:53:22;0.65;;;0.65;;
15402;SDS011;7799;53.478;10.170;2023-06-05T11:55:51;0.70;;;0.70;;
15402;SDS011;7799;53.478;10.170;2023-06-05T11:58:31;0.80;;;0.80;;
15402;SDS011;7799;53.478;10.170;2023-06-05T12:01:04;0.75;;;0.75;;
15402;SDS011;7799;53.478;10.170;2023-06-05T12:03:33;0.95;;;0.70;;
15402;SDS011;7799;53.478;10.170;2023-06-05T12:06:01;0.75;;;0.75;;
15402;SDS011;7799;53.478;10.170;2023-06-05T12:08:29;0.50;;;0.50;;
15402;SDS011;7799;53.478;10.170;2023-06-05T12:10:59;0.70;;;0.50;;
15402;SDS011;7799;53.478;10.170;2023-06-05T12:13:45;1.02;;;0.93;;
15402;SDS011;7799;53.478;10.170;2023-06-05T12:16:13;0.80;;;0.77;;
15402;SDS011;7799;53.478;10.170;2023-06-05T12:18:40;0.73;;;0.73;;
15402;SDS011;7799;53.478;10.170;2023-06-05T12:21:07;0.60;;;0.50;;
15402;SDS011;7799;53.478;10.170;2023-06-05T12:23:45;0.75;;;0.75;;
15402;SDS011;7799;53.478;10.170;2023-06-05T12:26:14;0.95;;;0.95;;
15402;SDS011;7799;53.478;10.170;2023-06-05T12:28:41;0.70;;;0.60;;
15402;SDS011;7799;53.478;10.170;2023-06-05T12:31:09;0.75;;;0.73;;
15402;SDS011;7799;53.478;10.170;2023-06-05T12:33:45;0.60;;;0.60;;
15402;SDS011;7799;53.478;10.170;2023-06-05T12:36:12;1.00;;;0.60;;
15402;SDS011;7799;53.478;10.170;2023-06-05T12:38:39;0.70;;;0.70;;
15402;SDS011;7799;53.478;10.170;2023-06-05T12:41:06;0.75;;;0.68;;
15402;SDS011;7799;53.478;10.170;2023-06-05T12:43:34;1.38;;;0.73;;
15402;SDS011;7799;53.478;10.170;2023-06-05T12:46:01;0.70;;;0.70;;
15402;SDS011;7799;53.478;10.170;2023-06-05T12:48:28;0.57;;;0.57;;
15402;SDS011;7799;53.478;10.170;2023-06-05T12:50:55;0.60;;;0.60;;
15402;SDS011;7799;53.478;10.170;2023-06-05T12:53:22;0.60;;;0.60;;
15402;SDS011;7799;53.478;10.170;2023-06-05T12:55:49;0.80;;;0.68;;
15402;SDS011;7799;53.478;10.170;2023-06-05T12:58:15;0.52;;;0.52;;
15402;SDS011;7799;53.478;10.170;2023-06-05T13:00:45;0.50;;;0.50;;
15402;SDS011;7799;53.478;10.170;2023-06-05T13:03:12;0.77;;;0.70;;
15402;SDS011;7799;53.478;10.170;2023-06-05T13:05:39;0.75;;;0.60;;
15402;SDS011;7799;53.478;10.170;2023-06-05T13:08:05;0.70;;;0.70;;
15402;SDS011;7799;53.478;10.170;2023-06-05T13:10:33;0.70;;;0.70;;
15402;SDS011;7799;53.478;10.170;2023-06-05T13:13:00;0.40;;;0.40;;
15402;SDS011;7799;53.478;10.170;2023-06-05T13:15:26;0.80;;;0.60;;
15402;SDS011;7799;53.478;10.170;2023-06-05T13:17:54;0.50;;;0.50;;
15402;SDS011;7799;53.478;10.170;2023-06-05T13:20:21;0.57;;;0.57;;
15402;SDS011;7799;53.478;10.170;2023-06-05T13:22:48;0.68;;;0.68;;
15402;SDS011;7799;53.478;10.170;2023-06-05T13:25:14;0.70;;;0.70;;
15402;SDS011;7799;53.478;10.170;2023-06-05T13:27:41;1.05;;;0.70;;
15402;SDS011;7799;53.478;10.170;2023-06-05T13:30:08;0.52;;;0.52;;
15402;SDS011;7799;53.478;10.170;2023-06-05T13:32:36;0.70;;;0.70;;
15402;SDS011;7799;53.478;10.170;2023-06-05T13:35:06;0.50;;;0.50;;
15402;SDS011;7799;53.478;10.170;2023-06-05T13:37:34;0.70;;;0.70;;
15402;SDS011;7799;53.478;10.170;2023-06-05T13:40:01;0.65;;;0.65;;
15402;SDS011;7799;53.478;10.170;2023-06-05T13:42:32;1.20;;;0.70;;
15402;SDS011;7799;53.478;10.170;2023-06-05T13:44:58;0.70;;;0.70;;
15402;SDS011;7799;53.478;10.170;2023-06-05T13:47:25;0.68;;;0.68;;
15402;SDS011;7799;53.478;10.170;2023-06-05T13:49:52;0.50;;;0.50;;
15402;SDS011;7799;53.478;10.170;2023-06-05T13:52:20;0.60;;;0.60;;
15402;SDS011;7799;53.478;10.170;2023-06-05T13:54:47;0.55;;;0.50;;
15402;SDS011;7799;53.478;10.170;2023-06-05T13:57:13;0.85;;;0.60;;
15402;SDS011;7799;53.478;10.170;2023-06-05T13:59:42;0.80;;;0.80;;
15402;SDS011;7799;53.478;10.170;2023-06-05T14:02:10;0.52;;;0.52;;
15402;SDS011;7799;53.478;10.170;2023-06-05T14:04:36;0.70;;;0.60;;
15402;SDS011;7799;53.478;10.170;2023-06-05T14:07:03;0.85;;;0.85;;
15402;SDS011;7799;53.478;10.170;2023-06-05T14:09:32;0.70;;;0.70;;
15402;SDS011;7799;53.478;10.170;2023-06-05T14:11:59;0.57;;;0.55;;
15402;SDS011;7799;53.478;10.170;2023-06-05T14:14:26;0.60;;;0.60;;
15402;SDS011;7799;53.478;10.170;2023-06-05T14:16:53;0.68;;;0.68;;
15402;SDS011;7799;53.478;10.170;2023-06-05T14:19:20;0.93;;;0.73;;
15402;SDS011;7799;53.478;10.170;2023-06-05T14:21:46;0.88;;;0.50;;
15402;SDS011;7799;53.478;10.170;2023-06-05T14:24:14;0.70;;;0.70;;
15402;SDS011;7799;53.478;10.170;2023-06-05T14:26:43;0.60;;;0.60;;
15402;SDS011;7799;53.478;10.170;2023-06-05T14:29:09;0.60;;;0.60;;
15402;SDS011;7799;53.478;10.170;2023-06-05T14:31:36;0.75;;;0.75;;
15402;SDS011;7799;53.478;10.170;2023-06-05T14:34:03;0.80;;;0.80;;
15402;SDS011;7799;53.478;10.170;2023-06-05T14:36:29;0.80;;;0.80;;
15402;SDS011;7799;53.478;10.170;2023-06-05T14:38:56;0.90;;;0.90;;
15402;SDS011;7799;53.478;10.170;2023-06-05T14:41:23;0.52;;;0.52;;
15402;SDS011;7799;53.478;10.170;2023-06-05T14:43:51;0.60;;;0.60;;
15402;SDS011;7799;53.478;10.170;2023-06-05T14:46:18;0.55;;;0.47;;
15402;SDS011;7799;53.478;10.170;2023-06-05T14:48:45;0.60;;;0.60;;
15402;SDS011;7799;53.478;10.170;2023-06-05T14:51:12;0.60;;;0.60;;
15402;SDS011;7799;53.478;10.170;2023-06-05T14:53:38;0.50;;;0.50;;
15402;SDS011;7799;53.478;10.170;2023-06-05T14:56:05;0.63;;;0.63;;
15402;SDS011;7799;53.478;10.170;2023-06-05T14:58:32;0.80;;;0.80;;
15402;SDS011;7799;53.478;10.170;2023-06-05T15:01:00;0.70;;;0.70;;
15402;SDS011;7799;53.478;10.170;2023-06-05T15:03:26;0.60;;;0.60;;
15402;SDS011;7799;53.478;10.170;2023-06-05T15:05:53;0.80;;;0.80;;
15402;SDS011;7799;53.478;10.170;2023-06-05T15:08:20;1.00;;;0.85;;
15402;SDS011;7799;53.478;10.170;2023-06-05T15:10:47;1.42;;;0.77;;